首页
METAR-TAF:

METAR-TAF

机场 :

圣克拉拉, 古巴

纬度: 22-29-32N, 经度: 079-56-37W, 海拔: 103米

当前天气观测

该预报发布于1小时和3分钟前的23:50 UTC
风速4节,风向西南,在南转西南西之间变化
温度 22°C
湿度 88%
气压 1012 hPa
能見度: 9000
散云层高于3000英尺

METAR: MUSC 202350Z 23004KT 200V260 9000 SCT030 22/20 Q1012

时间: 20:53 (00:53 UTC)

预报

该预报发布于1小时和53分钟前的23:00 UTC
预报有效从21日的 00点(UTC)到 21日的 24点(UTC)
风速4节,风向多变
能見度: 9000
散云层高于1800英尺
短暂存在
从 21日的 00点(UTC)到 21日的 03点(UTC)
风速10节,风向多变
多云层高于3000英尺
短暂存在
从 21日的 09点(UTC)到 21日的 13点(UTC)
能見度: 3000
轻雾
短暂存在
从 21日的 20点(UTC)到 21日的 23点(UTC)
风速10节,风向多变,有时为25节阵风
能見度: 1000
多云层高于1800英尺, 积雨云.
雷暴, 雨, 阵雨,

TAF: MUSC 202300Z 2100/2124 VRB04KT 9000 SCT018 TEMPO 2100/2103 VRB10KT BKN030 TEMPO 2109/2113 3000 BR TEMPO 2120/2123 VRB10G25KT 1000 TSRA SHRA BKN018CB

超过4000个机场的气象观测和天气预报(METAR&TAF报告)。

可查询的气象台以黄色和红色小点在地图上表示。

将鼠标移到小点上方,可查看气象台名称。

然后点击查看天气观测和预报。

如需切换地图:点击带黑十字的绿色按钮放大地图;点击带横线的绿色按钮缩小地图;或者点击绿色箭头查看邻近地区的地图。


METAR-TAF: